Time;durP1;ratioP1;P1;durP2;ratioP2;P2;SDS_P1;SDS_P2;PMS_P1;PMS_P2;Temp;Humidity;BMP_temperature;BMP_pressure;BME280_temperature;BME280_humidity;BME280_pressure;Samples;Min_cycle;Max_cycle;Signal;HPM_P1;HPM_P2
2021/12/05 04:01:47;;;;;;;2.40;1.00;;;5.00;83.10;;;;;;5525515;23;20286;-76
2021/12/05 04:04:14;;;;;;;2.30;0.90;;;4.80;83.10;;;;;;4993912;28;20983;-76
2021/12/05 04:06:41;;;;;;;4.20;1.00;;;4.80;83.90;;;;;;4994674;28;20457;-76
2021/12/05 04:09:11;;;;;;;3.67;1.10;;;4.90;83.80;;;;;;4993963;28;20507;-76
2021/12/05 04:11:43;;;;;;;3.60;1.23;;;4.90;83.20;;;;;;4994751;28;20465;-76
2021/12/05 04:14:13;;;;;;;2.40;0.90;;;4.60;83.80;;;;;;5018703;23;20437;-68
2021/12/05 04:16:41;;;;;;;2.73;1.27;;;4.60;84.70;;;;;;4993750;28;20425;-68
2021/12/05 04:19:09;;;;;;;2.40;0.97;;;4.70;84.20;;;;;;4997293;28;20453;-72
2021/12/05 04:21:37;;;;;;;2.70;1.10;;;4.90;84.20;;;;;;4997223;28;20568;-70
2021/12/05 04:24:06;;;;;;;3.30;0.80;;;5.10;83.00;;;;;;4997096;28;20485;-70
2021/12/05 04:26:34;;;;;;;2.50;0.90;;;5.10;82.60;;;;;;4997149;28;20909;-70
2021/12/05 04:29:01;;;;;;;3.47;1.10;;;5.20;82.50;;;;;;4997038;28;20539;-70
2021/12/05 04:31:28;;;;;;;2.30;0.80;;;5.00;82.80;;;;;;4997099;28;20515;-70
2021/12/05 04:33:55;;;;;;;3.07;1.10;;;5.20;82.90;;;;;;4996980;28;20445;-72
2021/12/05 04:36:23;;;;;;;2.83;1.10;;;5.30;82.10;;;;;;4997043;28;20503;-71
2021/12/05 04:38:50;;;;;;;3.50;1.20;;;5.10;82.10;;;;;;4996970;28;20453;-70
2021/12/05 04:41:17;;;;;;;4.00;1.00;;;5.30;82.70;;;;;;4996861;28;20503;-71
2021/12/05 04:43:46;;;;;;;3.37;0.90;;;5.50;82.20;;;;;;4996806;28;20457;-70
2021/12/05 04:46:16;;;;;;;2.73;1.20;;;5.40;80.90;;;;;;4996735;28;20842;-71
2021/12/05 04:48:46;;;;;;;2.30;0.90;;;5.10;82.10;;;;;;4996831;28;20504;-70
2021/12/05 04:51:13;;;;;;;2.67;0.97;;;5.10;82.30;;;;;;4996693;28;20449;-71
2021/12/05 04:53:41;;;;;;;2.67;0.87;;;5.10;82.50;;;;;;4996713;28;20513;-70
2021/12/05 04:56:08;;;;;;;2.90;1.03;;;5.30;82.50;;;;;;4996526;28;20516;-69
2021/12/05 04:58:35;;;;;;;2.83;1.10;;;5.40;82.00;;;;;;4996553;28;20503;-70
2021/12/05 05:01:02;;;;;;;2.47;1.10;;;5.50;81.50;;;;;;4996547;28;20452;-71
2021/12/05 05:03:29;;;;;;;2.87;0.90;;;5.40;81.40;;;;;;4996120;28;20449;-70
2021/12/05 05:06:03;;;;;;;2.70;1.03;;;5.40;81.60;;;;;;4995986;28;20890;-69
2021/12/05 05:08:31;;;;;;;2.30;1.00;;;5.50;81.50;;;;;;4996393;28;20473;-70
2021/12/05 05:10:59;;;;;;;3.33;1.33;;;5.60;81.40;;;;;;4996293;28;20464;-70
2021/12/05 05:13:26;;;;;;;3.70;0.80;;;5.70;81.10;;;;;;4997330;28;20464;-70
2021/12/05 05:15:53;;;;;;;4.53;1.57;;;5.80;80.70;;;;;;4996463;28;20585;-69
2021/12/05 05:18:21;;;;;;;2.20;0.80;;;5.90;80.40;;;;;;4996703;28;20877;-68
2021/12/05 05:20:55;;;;;;;3.03;0.70;;;5.80;79.50;;;;;;4996768;28;20453;-69
2021/12/05 05:23:37;;;;;;;5.20;0.90;;;5.30;80.40;;;;;;4997062;28;20433;-68
2021/12/05 05:26:47;;;;;;;2.97;0.80;;;5.30;81.80;;;;;;4995725;28;20917;-69
2021/12/05 05:29:42;;;;;;;3.40;1.00;;;5.00;81.90;;;;;;4995323;28;20941;-70
2021/12/05 05:43:21;;;;;;;2.00;0.70;;;4.80;83.30;;;;;;4966118;28;20811;-68
2021/12/05 05:46:02;;;;;;;2.63;0.97;;;4.80;83.40;;;;;;4995711;28;20491;-68
2021/12/05 05:48:43;;;;;;;3.23;1.10;;;4.70;83.20;;;;;;4995978;28;20470;-69
2021/12/05 05:51:11;;;;;;;4.07;0.90;;;4.60;83.80;;;;;;4995574;28;20912;-68
2021/12/05 05:53:39;;;;;;;2.20;0.80;;;4.50;84.10;;;;;;4995732;28;20838;-69
2021/12/05 05:56:10;;;;;;;2.40;0.80;;;4.50;84.30;;;;;;4995525;28;20465;-69
2021/12/05 05:58:43;;;;;;;2.30;0.90;;;4.20;84.50;;;;;;4995236;28;20926;-70
2021/12/05 06:01:19;;;;;;;2.50;0.80;;;4.10;85.50;;;;;;4995503;28;20437;-68
2021/12/05 06:03:46;;;;;;;2.50;1.10;;;3.70;86.60;;;;;;4995442;28;20433;-69
2021/12/05 06:06:15;;;;;;;2.57;1.17;;;3.60;87.40;;;;;;4994940;28;20559;-68
2021/12/05 06:08:43;;;;;;;2.20;0.90;;;3.50;88.00;;;;;;4995291;28;20457;-69
2021/12/05 06:11:12;;;;;;;2.30;0.80;;;3.40;88.40;;;;;;4995314;28;20452;-68
2021/12/05 06:13:41;;;;;;;2.73;1.00;;;3.50;88.60;;;;;;4995244;28;20449;-68
2021/12/05 06:16:10;;;;;;;2.50;0.80;;;3.60;88.50;;;;;;4994725;28;20855;-68
2021/12/05 06:18:37;;;;;;;4.50;1.20;;;3.50;88.20;;;;;;4994830;28;20457;-69
2021/12/05 06:21:04;;;;;;;3.40;0.90;;;3.60;88.00;;;;;;4995873;28;20457;-69
2021/12/05 06:23:31;;;;;;;2.10;0.80;;;3.70;87.80;;;;;;4995686;28;20453;-68
2021/12/05 06:25:58;;;;;;;2.70;1.10;;;3.50;87.40;;;;;;4994832;28;20863;-68
2021/12/05 06:28:30;;;;;;;2.40;1.00;;;3.30;88.30;;;;;;4994578;28;20825;-68
2021/12/05 06:31:07;;;;;;;2.20;0.77;;;3.30;89.20;;;;;;4996670;28;20430;-68
2021/12/05 06:39:26;;;;;;;2.63;1.13;;;3.30;88.00;;;;;;4935360;29;20567;-69
2021/12/05 06:42:03;;;;;;;2.50;1.00;;;3.50;88.60;;;;;;4935532;29;20446;-68
2021/12/05 06:47:21;;;;;;;2.43;1.00;;;3.60;87.50;;;;;;4996455;28;20408;-68
2021/12/05 06:49:47;;;;;;;3.03;0.90;;;3.30;88.20;;;;;;4995541;28;20445;-69
2021/12/05 06:52:14;;;;;;;2.40;0.97;;;3.50;88.70;;;;;;4995410;28;20811;-67
2021/12/05 06:54:42;;;;;;;2.40;1.30;;;3.40;88.00;;;;;;4995033;28;20535;-69
2021/12/05 06:57:10;;;;;;;2.20;0.90;;;3.50;88.40;;;;;;4995173;28;20507;-69
2021/12/05 06:59:39;;;;;;;3.40;1.17;;;3.40;88.20;;;;;;4994633;28;20484;-69
2021/12/05 07:02:06;;;;;;;3.17;0.80;;;3.30;88.60;;;;;;4994624;28;20456;-68
2021/12/05 07:04:54;;;;;;;2.10;0.80;;;3.20;89.30;;;;;;4994453;28;20475;-68
2021/12/05 07:07:24;;;;;;;3.83;1.20;;;3.30;89.50;;;;;;4994783;28;20437;-68
2021/12/05 07:09:52;;;;;;;2.37;0.97;;;3.40;88.90;;;;;;4994426;28;20449;-69
2021/12/05 07:15:07;;;;;;;2.20;0.83;;;3.60;88.60;;;;;;4994233;28;20467;-69
2021/12/05 07:20:15;;;;;;;2.20;0.90;;;3.70;87.90;;;;;;4994336;28;20524;-69
2021/12/05 07:22:52;;;;;;;2.50;1.10;;;3.90;87.50;;;;;;4994354;28;20191;-68
2021/12/05 07:25:29;;;;;;;2.80;0.90;;;3.90;86.60;;;;;;4994228;28;20519;-69
2021/12/05 07:41:48;;;;;;;3.80;1.27;;;4.30;85.40;;;;;;4994041;28;20463;-69
2021/12/05 07:44:14;;;;;;;3.10;1.53;;;4.30;84.30;;;;;;4993950;28;20531;-69
2021/12/05 07:46:41;;;;;;;2.90;1.33;;;4.40;84.20;;;;;;4993919;28;20477;-69
2021/12/05 07:49:10;;;;;;;3.90;1.17;;;4.40;84.40;;;;;;4993950;28;20456;-70
2021/12/05 07:51:42;;;;;;;2.50;1.03;;;4.40;84.40;;;;;;4995569;28;20449;-69
2021/12/05 07:54:15;;;;;;;2.67;0.97;;;4.60;84.10;;;;;;4997822;28;20488;-70
2021/12/05 07:56:47;;;;;;;2.37;1.03;;;4.80;82.70;;;;;;4997540;28;20847;-70
2021/12/05 07:59:26;;;;;;;3.47;1.57;;;4.70;83.40;;;;;;4997544;28;20488;-69
2021/12/05 08:15:44;;;;;;;2.20;0.80;;;5.90;77.90;;;;;;4996999;28;20456;-68
2021/12/05 08:18:10;;;;;;;3.10;0.90;;;5.70;79.30;;;;;;4997372;28;20429;-68
2021/12/05 08:20:41;;;;;;;2.40;0.80;;;6.00;79.00;;;;;;4997871;28;20445;-70
2021/12/05 08:23:11;;;;;;;7.37;1.47;;;6.00;78.40;;;;;;4996997;28;20901;-69
2021/12/05 08:25:40;;;;;;;2.40;0.90;;;6.20;77.80;;;;;;4997054;28;20527;-68
2021/12/05 08:28:21;;;;;;;3.23;0.97;;;6.10;76.90;;;;;;4997188;28;20477;-69
2021/12/05 08:30:58;;;;;;;2.53;0.90;;;6.00;78.40;;;;;;4997182;28;20781;-68
2021/12/05 08:33:41;;;;;;;5.80;1.37;;;6.00;77.50;;;;;;4997129;28;20539;-69
2021/12/05 08:36:43;;;;;;;2.53;1.00;;;5.90;79.00;;;;;;4997019;28;20468;-70
2021/12/05 08:45:16;;;;;;;2.60;0.97;;;6.60;77.60;;;;;;4981242;28;20472;-70
2021/12/05 09:21:24;;;;;;;2.13;0.70;;;5.30;81.50;;;;;;4996112;28;20405;-69
2021/12/05 09:24:13;;;;;;;2.50;1.10;;;5.60;82.20;;;;;;4995716;28;20448;-69
2021/12/05 09:26:55;;;;;;;5.03;0.80;;;5.80;82.10;;;;;;4996087;28;20579;-69
2021/12/05 10:02:46;;;;;;;2.30;0.80;;;6.30;78.50;;;;;;4995463;28;20413;-70
2021/12/05 10:08:37;;;;;;;2.17;0.80;;;6.90;78.10;;;;;;4995498;28;20448;-70
2021/12/05 10:11:17;;;;;;;2.37;0.90;;;7.30;78.10;;;;;;4994907;28;20940;-71
2021/12/05 10:13:57;;;;;;;2.40;0.80;;;7.70;76.40;;;;;;4995095;28;20476;-71
2021/12/05 10:16:44;;;;;;;2.80;0.80;;;7.80;72.90;;;;;;5020024;23;20878;-75
2021/12/05 10:19:46;;;;;;;2.77;1.20;;;7.40;73.80;;;;;;4995544;28;20442;-76
2021/12/05 10:36:22;;;;;;;2.57;1.00;;;6.80;77.30;;;;;;4995290;28;20452;-75
2021/12/05 10:38:54;;;;;;;2.33;0.80;;;7.10;77.70;;;;;;4995580;28;20488;-75
2021/12/05 10:41:45;;;;;;;2.30;0.77;;;7.40;76.00;;;;;;4995544;28;20460;-75
2021/12/05 10:44:13;;;;;;;2.40;0.97;;;7.60;74.70;;;;;;4994778;28;20822;-75
2021/12/05 10:46:41;;;;;;;3.03;1.10;;;7.80;74.30;;;;;;4994461;28;20832;-76
2021/12/05 10:49:11;;;;;;;2.20;0.70;;;8.30;72.30;;;;;;4995077;28;20449;-76
2021/12/05 10:51:44;;;;;;;2.23;0.83;;;8.70;70.90;;;;;;4994844;28;20449;-76
2021/12/05 10:54:12;;;;;;;2.10;0.70;;;8.50;70.50;;;;;;4995159;28;20516;-76
2021/12/05 10:56:41;;;;;;;2.20;0.83;;;8.10;72.30;;;;;;4994657;28;20985;-75
2021/12/05 10:59:11;;;;;;;2.20;0.80;;;7.70;73.00;;;;;;4994487;28;20472;-76
2021/12/05 11:01:40;;;;;;;2.40;1.03;;;7.50;74.00;;;;;;4994886;28;20524;-76
2021/12/05 11:04:09;;;;;;;2.70;0.93;;;7.40;74.20;;;;;;4994398;28;20456;-76
2021/12/05 11:06:50;;;;;;;2.50;0.90;;;7.40;74.10;;;;;;4994604;28;20488;-76
2021/12/05 11:09:20;;;;;;;2.50;0.70;;;7.50;74.60;;;;;;4996041;28;20437;-76
2021/12/05 11:11:50;;;;;;;2.10;0.70;;;7.20;74.00;;;;;;4994941;28;20449;-76
2021/12/05 11:14:19;;;;;;;2.97;0.90;;;7.10;75.70;;;;;;4995161;28;20449;-76
2021/12/05 11:16:58;;;;;;;2.93;0.70;;;7.30;76.00;;;;;;4994485;28;20867;-76
2021/12/05 11:19:29;;;;;;;2.20;0.80;;;7.60;76.20;;;;;;4994714;28;20479;-76
2021/12/05 11:22:05;;;;;;;2.50;0.90;;;7.80;73.30;;;;;;4994740;28;20442;-76
2021/12/05 11:24:35;;;;;;;2.10;0.70;;;8.00;72.70;;;;;;4994672;28;20842;-76
2021/12/05 11:27:17;;;;;;;2.70;0.90;;;8.10;71.30;;;;;;4993793;28;21058;-76
2021/12/05 11:29:48;;;;;;;2.47;0.83;;;7.80;72.10;;;;;;4994642;28;20437;-76
2021/12/05 11:32:17;;;;;;;2.20;0.70;;;7.60;71.90;;;;;;4994606;28;20435;-76
2021/12/05 11:34:44;;;;;;;2.23;0.90;;;7.50;72.90;;;;;;4994325;28;21003;-76
2021/12/05 11:37:12;;;;;;;2.60;0.90;;;7.20;74.40;;;;;;4994545;28;20862;-76
2021/12/05 11:39:38;;;;;;;2.20;0.90;;;7.20;74.20;;;;;;4994462;28;20449;-76
2021/12/05 11:42:13;;;;;;;2.13;0.90;;;7.20;73.60;;;;;;4995269;28;20452;-76
2021/12/05 11:44:41;;;;;;;2.40;0.80;;;6.80;73.60;;;;;;4994543;28;20476;-76
2021/12/05 11:47:17;;;;;;;2.30;0.90;;;6.70;74.40;;;;;;4994331;28;20488;-76
2021/12/05 11:49:45;;;;;;;2.30;0.80;;;6.70;74.50;;;;;;4994508;28;20429;-76
2021/12/05 11:52:14;;;;;;;2.63;1.00;;;6.70;75.80;;;;;;4994219;28;20523;-76
2021/12/05 11:54:43;;;;;;;2.40;0.70;;;6.70;75.10;;;;;;4994556;28;20523;-76
2021/12/05 11:57:12;;;;;;;2.63;0.83;;;6.80;75.40;;;;;;4994462;28;20448;-76
2021/12/05 11:59:41;;;;;;;2.40;0.80;;;7.00;75.40;;;;;;4994384;28;20511;-76
2021/12/05 12:02:10;;;;;;;2.00;0.70;;;7.10;75.00;;;;;;4996237;28;20500;-76
2021/12/05 12:04:45;;;;;;;2.20;0.80;;;7.00;74.50;;;;;;4995662;28;20828;-76
2021/12/05 12:07:18;;;;;;;2.30;0.90;;;6.90;75.50;;;;;;4996034;28;20465;-76
2021/12/05 12:09:47;;;;;;;2.57;0.90;;;7.00;75.40;;;;;;4996269;28;20441;-77
2021/12/05 12:12:15;;;;;;;2.30;0.87;;;7.00;75.00;;;;;;4996446;28;20459;-76
2021/12/05 12:14:42;;;;;;;2.53;0.90;;;7.20;74.60;;;;;;4996467;28;20469;-77
2021/12/05 12:17:16;;;;;;;2.70;0.90;;;7.30;74.60;;;;;;4996740;28;20836;-76
2021/12/05 12:19:44;;;;;;;2.33;0.80;;;7.50;73.90;;;;;;4996364;28;20442;-76
2021/12/05 12:22:11;;;;;;;2.20;0.80;;;8.50;73.70;;;;;;4996620;28;20765;-75
2021/12/05 12:24:40;;;;;;;2.80;1.00;;;11.00;68.40;;;;;;4995368;28;20495;-76
2021/12/05 12:27:07;;;;;;;2.93;1.03;;;13.50;59.80;;;;;;4993995;28;21003;-77
2021/12/05 12:29:35;;;;;;;2.90;1.33;;;13.60;56.20;;;;;;4994566;28;20503;-75
2021/12/05 12:32:07;;;;;;;2.10;0.73;;;12.10;57.90;;;;;;4995420;28;20441;-76
2021/12/05 12:34:34;;;;;;;2.37;0.93;;;10.60;61.70;;;;;;4995173;28;20535;-76
2021/12/05 12:37:05;;;;;;;2.30;0.87;;;10.20;63.10;;;;;;4994687;28;20448;-76
2021/12/05 12:39:36;;;;;;;2.50;0.90;;;9.80;64.70;;;;;;4998339;28;20480;-76
2021/12/05 12:42:16;;;;;;;2.20;0.70;;;9.30;65.40;;;;;;4998781;28;20457;-77
2021/12/05 12:45:18;;;;;;;2.00;0.70;;;8.80;66.60;;;;;;4998661;28;20480;-77
2021/12/05 12:47:53;;;;;;;2.20;0.70;;;8.30;69.00;;;;;;4939243;29;20483;-77
2021/12/05 12:50:35;;;;;;;2.20;0.80;;;8.30;69.70;;;;;;4940331;29;20892;-76
2021/12/05 12:53:13;;;;;;;2.30;0.80;;;8.10;69.30;;;;;;4975403;28;20449;-76
2021/12/05 12:55:43;;;;;;;2.37;0.90;;;8.20;71.40;;;;;;4998531;28;20827;-76
2021/12/05 12:58:13;;;;;;;2.00;0.60;;;8.10;70.20;;;;;;4998196;28;20803;-76
2021/12/05 13:00:46;;;;;;;2.30;0.73;;;7.90;70.70;;;;;;4998179;28;20434;-76
2021/12/05 13:03:26;;;;;;;2.10;0.70;;;7.90;70.50;;;;;;4998722;28;20442;-76
2021/12/05 13:11:51;;;;;;;2.00;0.60;;;8.60;72.60;;;;;;4996616;28;20421;-76
2021/12/05 13:14:20;;;;;;;2.20;0.70;;;9.50;71.00;;;;;;4996490;28;20452;-76
2021/12/05 13:16:49;;;;;;;2.30;0.70;;;11.10;66.20;;;;;;4996111;28;20457;-76
2021/12/05 13:19:22;;;;;;;2.10;0.80;;;11.60;63.10;;;;;;4996350;28;20499;-76
2021/12/05 13:21:52;;;;;;;2.50;0.90;;;11.60;62.20;;;;;;4996449;28;20441;-76
2021/12/05 13:24:25;;;;;;;2.00;0.67;;;11.50;63.10;;;;;;4997382;28;20452;-77
2021/12/05 13:27:01;;;;;;;2.10;0.80;;;11.20;63.80;;;;;;4996193;28;20479;-77
2021/12/05 13:29:31;;;;;;;2.47;0.90;;;10.90;64.10;;;;;;4995983;28;20917;-76
2021/12/05 13:32:06;;;;;;;2.20;0.80;;;10.60;64.70;;;;;;4996113;28;20445;-76
2021/12/05 13:34:49;;;;;;;2.23;0.73;;;10.20;64.60;;;;;;4995964;28;20532;-77
2021/12/05 13:37:35;;;;;;;2.03;0.70;;;9.60;66.20;;;;;;4997945;28;20524;-77
2021/12/05 13:40:16;;;;;;;2.33;0.90;;;9.10;67.30;;;;;;4996240;28;20456;-77
2021/12/05 13:42:48;;;;;;;2.60;0.77;;;8.90;68.60;;;;;;4995831;28;20901;-75
2021/12/05 13:45:21;;;;;;;4.47;1.63;;;8.80;69.00;;;;;;4995707;28;20988;-73
2021/12/05 13:48:08;;;;;;;2.93;0.90;;;8.40;69.50;;;;;;4996411;28;20465;-78
2021/12/05 13:50:38;;;;;;;2.10;0.70;;;8.30;69.60;;;;;;4995525;28;20437;-77
2021/12/05 13:53:23;;;;;;;2.20;1.00;;;8.10;70.60;;;;;;4995710;28;20548;-76
2021/12/05 13:56:11;;;;;;;3.63;1.20;;;8.30;71.10;;;;;;4995790;28;20551;-76
2021/12/05 13:58:45;;;;;;;2.60;0.90;;;8.70;70.40;;;;;;4993253;28;20527;-76
2021/12/05 14:01:17;;;;;;;2.20;0.80;;;9.70;67.70;;;;;;4995629;28;20507;-77
2021/12/05 14:03:48;;;;;;;2.30;1.00;;;10.60;64.90;;;;;;4995971;28;20430;-75
2021/12/05 14:06:44;;;;;;;2.73;0.97;;;11.40;62.40;;;;;;4997099;28;20473;-77
2021/12/05 14:09:15;;;;;;;2.20;0.80;;;11.70;61.50;;;;;;4982733;28;20453;-75
2021/12/05 14:11:54;;;;;;;2.07;0.70;;;11.40;60.80;;;;;;4995686;28;20437;-75
2021/12/05 14:14:26;;;;;;;2.70;0.80;;;10.90;62.00;;;;;;4997755;28;20479;-74
2021/12/05 14:16:56;;;;;;;2.33;1.00;;;10.00;63.50;;;;;;4998317;28;20933;-77
2021/12/05 14:19:28;;;;;;;2.23;0.73;;;9.90;65.40;;;;;;5000370;28;20445;-80
2021/12/05 14:21:57;;;;;;;2.00;0.60;;;9.90;64.80;;;;;;4999862;28;20441;-79
2021/12/05 14:24:28;;;;;;;2.20;0.80;;;9.40;65.30;;;;;;5000294;28;20464;-82
2021/12/05 14:26:58;;;;;;;2.07;0.70;;;9.60;65.60;;;;;;4998489;28;20473;-77
2021/12/05 14:29:27;;;;;;;2.27;0.80;;;9.60;65.40;;;;;;4998359;28;20811;-76
2021/12/05 14:31:58;;;;;;;2.13;0.70;;;9.40;65.60;;;;;;4997749;28;20508;-76
2021/12/05 14:34:27;;;;;;;2.10;0.73;;;9.40;66.40;;;;;;4998404;28;20429;-78
2021/12/05 14:36:57;;;;;;;3.40;0.80;;;9.30;66.10;;;;;;4997178;28;20442;-77
2021/12/05 14:39:28;;;;;;;2.87;0.80;;;9.20;66.50;;;;;;4996872;28;20941;-76
2021/12/05 14:41:58;;;;;;;2.70;1.10;;;9.10;66.70;;;;;;4996476;28;20434;-77
2021/12/05 14:44:26;;;;;;;2.17;0.80;;;9.10;66.80;;;;;;4997449;28;20492;-77
2021/12/05 14:46:58;;;;;;;2.10;0.80;;;9.00;67.00;;;;;;4997849;28;20484;-77
2021/12/05 14:49:27;;;;;;;2.67;0.83;;;9.00;67.80;;;;;;4997712;28;20444;-77
2021/12/05 14:51:54;;;;;;;2.90;1.10;;;8.90;68.10;;;;;;4998306;28;20437;-77
2021/12/05 14:54:34;;;;;;;2.40;0.90;;;8.50;68.20;;;;;;4998357;28;20464;-78
2021/12/05 14:57:06;;;;;;;3.00;1.30;;;8.00;70.10;;;;;;4998016;28;20460;-77
2021/12/05 14:59:32;;;;;;;2.87;1.10;;;7.90;70.70;;;;;;4997837;28;20429;-77
2021/12/05 15:02:01;;;;;;;2.67;1.00;;;7.60;71.60;;;;;;4996760;28;20975;-76
2021/12/05 15:04:33;;;;;;;2.77;0.97;;;7.50;72.00;;;;;;4998058;28;20449;-78
2021/12/05 15:07:00;;;;;;;2.50;0.93;;;7.50;72.10;;;;;;4998398;28;20469;-76
2021/12/05 15:09:34;;;;;;;2.53;1.07;;;7.50;72.40;;;;;;4996714;28;20464;-77
2021/12/05 15:12:05;;;;;;;3.77;1.07;;;7.20;72.70;;;;;;4997756;28;20433;-77
2021/12/05 15:14:35;;;;;;;2.40;0.90;;;7.00;73.20;;;;;;4996861;28;20437;-77
2021/12/05 15:17:13;;;;;;;2.60;1.30;;;6.90;73.90;;;;;;4997470;28;20430;-77
2021/12/05 15:19:43;;;;;;;2.40;0.90;;;7.00;73.90;;;;;;4996959;28;20501;-77
2021/12/05 15:22:12;;;;;;;2.93;1.27;;;7.00;73.70;;;;;;4996563;28;20529;-77
2021/12/05 15:24:39;;;;;;;2.80;1.20;;;7.00;74.10;;;;;;4994391;28;20515;-77
2021/12/05 15:27:15;;;;;;;2.60;1.00;;;7.10;74.10;;;;;;4994180;28;20484;-77
2021/12/05 15:29:46;;;;;;;2.60;1.10;;;7.20;73.90;;;;;;4994294;28;20464;-77
2021/12/05 15:32:19;;;;;;;2.97;1.20;;;7.20;73.90;;;;;;4994047;28;20963;-76
2021/12/05 15:34:49;;;;;;;2.60;1.10;;;6.90;74.50;;;;;;4993783;28;20900;-77
2021/12/05 15:37:15;;;;;;;2.30;0.90;;;6.90;74.80;;;;;;4994812;28;20453;-77
2021/12/05 15:39:45;;;;;;;2.60;1.53;;;7.00;74.80;;;;;;4994100;28;21003;-77
2021/12/05 15:42:18;;;;;;;2.43;0.90;;;7.00;74.90;;;;;;4994004;28;20829;-77
2021/12/05 15:44:46;;;;;;;2.20;0.80;;;7.00;74.90;;;;;;4994423;28;20469;-77
2021/12/05 15:47:15;;;;;;;2.40;0.90;;;6.90;75.30;;;;;;4994247;28;20485;-77
2021/12/05 15:50:03;;;;;;;2.23;0.90;;;6.90;75.40;;;;;;4994262;28;20449;-76
2021/12/05 15:52:40;;;;;;;2.30;0.87;;;6.90;75.50;;;;;;4994274;28;20433;-76
2021/12/05 15:55:12;;;;;;;2.87;1.10;;;6.90;75.60;;;;;;4994122;28;20523;-76
2021/12/05 15:57:45;;;;;;;2.33;0.80;;;6.90;75.80;;;;;;4993791;28;20853;-77
2021/12/05 16:00:17;;;;;;;2.03;0.77;;;6.80;76.00;;;;;;4993967;28;20802;-76
2021/12/05 16:02:47;;;;;;;2.67;0.93;;;6.80;76.10;;;;;;4994018;28;20425;-77
2021/12/05 16:05:20;;;;;;;2.47;0.90;;;6.80;76.30;;;;;;4993833;28;20529;-77
2021/12/05 16:07:48;;;;;;;2.30;0.90;;;6.70;76.40;;;;;;4993486;28;21014;-77
2021/12/05 16:10:21;;;;;;;2.50;1.00;;;6.80;76.40;;;;;;4993783;28;20453;-77
2021/12/05 16:12:49;;;;;;;3.10;1.23;;;7.00;76.50;;;;;;4995360;28;20905;-77
2021/12/05 16:15:18;;;;;;;3.00;1.30;;;7.00;76.30;;;;;;5102226;23;20463;-77
2021/12/05 16:17:54;;;;;;;2.50;1.33;;;7.10;76.20;;;;;;4998419;28;20539;-77
2021/12/05 16:20:26;;;;;;;3.43;2.40;;;7.10;76.30;;;;;;4997663;28;20483;-76
2021/12/05 16:23:24;;;;;;;3.60;2.30;;;7.20;76.30;;;;;;4997837;28;20444;-77
2021/12/05 16:26:05;;;;;;;4.10;2.63;;;7.20;75.80;;;;;;4997621;28;20479;-77
2021/12/05 16:28:35;;;;;;;4.57;2.50;;;7.20;76.10;;;;;;4997246;28;20972;-77
2021/12/05 16:31:10;;;;;;;3.70;2.30;;;7.20;75.90;;;;;;4997520;28;20453;-77
2021/12/05 16:33:37;;;;;;;4.53;2.93;;;7.20;75.60;;;;;;4997347;28;20436;-78
2021/12/05 16:36:06;;;;;;;4.40;3.40;;;7.20;75.50;;;;;;4997249;28;20469;-77
2021/12/05 16:38:37;;;;;;;4.33;2.70;;;7.20;75.70;;;;;;4997415;28;20495;-78
2021/12/05 16:41:17;;;;;;;4.57;2.80;;;7.20;75.50;;;;;;4997370;28;20456;-78
2021/12/05 16:43:54;;;;;;;3.30;2.47;;;7.20;75.50;;;;;;4997316;28;20483;-78
2021/12/05 16:46:25;;;;;;;3.43;2.40;;;7.10;75.80;;;;;;4997142;28;20814;-78
2021/12/05 16:48:56;;;;;;;3.97;2.87;;;7.10;76.00;;;;;;4997310;28;20523;-78
2021/12/05 16:51:28;;;;;;;5.10;2.47;;;7.10;75.80;;;;;;4996918;28;20516;-78
2021/12/05 16:54:02;;;;;;;3.87;2.27;;;7.10;75.70;;;;;;4997222;28;20430;-76
2021/12/05 16:56:44;;;;;;;3.20;2.20;;;7.10;75.80;;;;;;4997064;28;20468;-77
2021/12/05 16:59:15;;;;;;;3.10;1.70;;;7.10;75.60;;;;;;4997121;28;20507;-78
2021/12/05 17:01:42;;;;;;;3.77;2.03;;;7.10;75.50;;;;;;4997269;28;20434;-78
2021/12/05 17:04:11;;;;;;;3.57;1.90;;;7.00;75.60;;;;;;4997014;28;20601;-78
2021/12/05 17:06:53;;;;;;;3.73;2.93;;;7.00;76.00;;;;;;4996682;28;20567;-78
2021/12/05 17:09:21;;;;;;;3.30;1.83;;;7.00;76.10;;;;;;4996694;28;20465;-78
2021/12/05 17:15:13;;;;;;;4.60;2.97;;;6.80;76.10;;;;;;4998092;28;20865;-78
2021/12/05 17:17:41;;;;;;;5.30;4.23;;;6.70;76.40;;;;;;4999061;28;20430;-76
2021/12/05 17:20:22;;;;;;;5.07;3.40;;;6.70;76.60;;;;;;4997611;28;20826;-79
2021/12/05 17:22:56;;;;;;;4.47;3.13;;;6.70;77.00;;;;;;4998552;28;20457;-78
2021/12/05 17:25:35;;;;;;;4.50;3.13;;;6.70;77.00;;;;;;4996530;28;20472;-76
2021/12/05 17:28:04;;;;;;;3.73;2.50;;;6.70;77.10;;;;;;4996810;28;20473;-77
2021/12/05 17:30:31;;;;;;;4.17;3.27;;;6.70;77.10;;;;;;4996518;28;20507;-77
2021/12/05 17:32:59;;;;;;;4.73;2.57;;;6.70;77.10;;;;;;4996340;28;20453;-76
2021/12/05 17:35:27;;;;;;;3.03;1.90;;;6.70;77.10;;;;;;4996146;28;20466;-78
2021/12/05 17:37:56;;;;;;;3.20;2.03;;;6.80;76.70;;;;;;4996298;28;20449;-77
2021/12/05 17:40:23;;;;;;;3.20;2.40;;;6.80;76.70;;;;;;4995871;28;20452;-77
2021/12/05 17:42:50;;;;;;;4.00;2.33;;;6.80;76.20;;;;;;4996814;28;20461;-77
2021/12/05 17:45:17;;;;;;;4.20;2.60;;;6.80;76.00;;;;;;4996835;28;21056;-78
2021/12/05 17:47:44;;;;;;;4.93;3.13;;;6.70;76.00;;;;;;4997733;28;20487;-77
2021/12/05 17:50:15;;;;;;;3.03;1.97;;;6.70;76.00;;;;;;4996290;28;20453;-77
2021/12/05 17:52:43;;;;;;;3.63;2.10;;;6.70;76.00;;;;;;4996997;28;20445;-78
2021/12/05 17:55:18;;;;;;;4.57;2.93;;;6.70;76.00;;;;;;4996215;28;20482;-78
2021/12/05 17:57:52;;;;;;;3.87;2.30;;;6.70;76.30;;;;;;4996745;28;20460;-78
2021/12/05 18:00:34;;;;;;;3.00;1.80;;;6.70;76.40;;;;;;4995914;28;20469;-80
2021/12/05 18:03:02;;;;;;;6.00;3.77;;;6.60;76.60;;;;;;4997088;28;20477;-80
2021/12/05 18:05:31;;;;;;;4.43;2.70;;;6.70;76.60;;;;;;4997670;28;20564;-80
2021/12/05 18:08:04;;;;;;;3.07;1.80;;;6.60;76.60;;;;;;4997272;28;20846;-80
2021/12/05 18:10:36;;;;;;;2.50;1.30;;;6.60;76.40;;;;;;4998287;28;20444;-80
2021/12/05 18:13:04;;;;;;;4.70;1.90;;;6.60;76.10;;;;;;4997915;28;20512;-80
2021/12/05 18:15:35;;;;;;;3.53;1.93;;;6.70;75.80;;;;;;4997631;28;20485;-80
2021/12/05 18:18:04;;;;;;;4.60;3.13;;;6.60;75.80;;;;;;4997708;28;20438;-80
2021/12/05 18:20:35;;;;;;;4.20;2.40;;;6.70;75.90;;;;;;4997575;28;20457;-80
2021/12/05 18:23:05;;;;;;;4.17;2.20;;;6.70;76.00;;;;;;4996929;28;20917;-78
2021/12/05 18:25:35;;;;;;;3.00;1.77;;;6.70;75.90;;;;;;4995836;28;20539;-81
2021/12/05 18:28:02;;;;;;;3.50;2.80;;;6.70;75.80;;;;;;5000896;28;20503;-79
2021/12/05 18:30:30;;;;;;;3.60;2.20;;;6.70;75.70;;;;;;5009597;28;20442;-81
2021/12/05 18:32:59;;;;;;;3.83;2.43;;;6.80;75.60;;;;;;5003406;28;20445;-79
2021/12/05 18:35:31;;;;;;;3.77;2.10;;;6.80;75.70;;;;;;4998064;28;20497;-80
2021/12/05 18:37:59;;;;;;;2.90;1.60;;;6.80;75.90;;;;;;4997188;28;20484;-79
2021/12/05 18:40:26;;;;;;;4.23;2.73;;;6.70;75.80;;;;;;4998494;28;20449;-81
2021/12/05 18:42:56;;;;;;;6.60;3.93;;;6.70;75.90;;;;;;4998814;28;20799;-81
2021/12/05 18:45:24;;;;;;;6.73;5.00;;;6.70;75.80;;;;;;4998915;28;20469;-80
2021/12/05 18:47:51;;;;;;;4.10;3.30;;;6.70;75.80;;;;;;4997638;28;20457;-80
2021/12/05 18:50:18;;;;;;;4.77;2.90;;;6.70;75.90;;;;;;4999745;28;20484;-81
2021/12/05 18:52:45;;;;;;;4.47;3.03;;;6.70;76.20;;;;;;5000132;28;20449;-81
2021/12/05 18:55:17;;;;;;;5.97;3.80;;;6.70;76.20;;;;;;4995148;28;20481;-77
2021/12/05 18:57:45;;;;;;;4.00;3.60;;;6.60;76.30;;;;;;4994943;28;20440;-77
2021/12/05 19:00:26;;;;;;;4.53;3.37;;;6.60;76.10;;;;;;4995106;28;20915;-77
2021/12/05 19:05:48;;;;;;;6.40;4.03;;;6.60;76.40;;;;;;4994677;28;20468;-77
2021/12/05 19:08:36;;;;;;;7.17;3.63;;;6.60;76.60;;;;;;4994590;28;20478;-77
2021/12/05 19:13:49;;;;;;;4.90;3.80;;;6.60;76.70;;;;;;4994800;28;20412;-78
2021/12/05 19:16:17;;;;;;;5.53;4.90;;;6.60;76.80;;;;;;5000813;28;20495;-79
2021/12/05 19:18:44;;;;;;;5.13;3.80;;;6.60;77.00;;;;;;5005139;28;20456;-78
2021/12/05 19:21:11;;;;;;;7.03;5.87;;;6.60;77.00;;;;;;4994850;28;20453;-78
2021/12/05 19:23:39;;;;;;;8.70;7.23;;;6.60;77.20;;;;;;4994070;28;20457;-77
2021/12/05 19:26:07;;;;;;;16.60;11.80;;;6.60;77.20;;;;;;4993883;28;20524;-77
2021/12/05 19:28:34;;;;;;;19.93;16.13;;;6.60;77.20;;;;;;4994461;28;20492;-77
2021/12/05 19:31:02;;;;;;;17.87;14.37;;;6.70;76.80;;;;;;4993982;28;20445;-77
2021/12/05 19:33:31;;;;;;;17.97;12.40;;;6.60;77.00;;;;;;4993779;28;20441;-78
2021/12/05 19:35:59;;;;;;;11.00;8.90;;;6.60;76.80;;;;;;4993894;28;20499;-77
2021/12/05 19:38:28;;;;;;;4.70;3.20;;;6.60;77.00;;;;;;4993576;28;20987;-78
2021/12/05 19:40:57;;;;;;;3.40;2.20;;;6.60;77.00;;;;;;4993909;28;20503;-77
2021/12/05 19:43:25;;;;;;;3.30;2.37;;;6.60;76.40;;;;;;4994217;28;20540;-77
2021/12/05 19:45:52;;;;;;;4.43;2.37;;;6.70;76.40;;;;;;4993822;28;20841;-77
2021/12/05 19:48:19;;;;;;;4.90;2.70;;;6.70;76.40;;;;;;4996634;28;20477;-77
2021/12/05 19:50:47;;;;;;;8.10;6.67;;;6.60;76.30;;;;;;4997581;28;20868;-77
2021/12/05 19:53:15;;;;;;;8.63;6.37;;;6.60;76.30;;;;;;4997572;28;20468;-77
2021/12/05 19:55:42;;;;;;;8.40;6.07;;;6.50;76.80;;;;;;4997653;28;20464;-77
2021/12/05 19:58:09;;;;;;;6.57;5.60;;;6.40;77.20;;;;;;4997346;28;20846;-77